createdAt,value
2018-05-06T00:00:41.329Z,0.00
2018-05-06T00:01:41.310Z,0.00
2018-05-06T00:02:41.312Z,0.00
2018-05-06T00:03:41.278Z,0.00
2018-05-06T00:04:41.262Z,0.00
2018-05-06T00:05:41.251Z,0.00
2018-05-06T00:06:41.232Z,0.00
2018-05-06T00:07:41.218Z,0.00
2018-05-06T00:08:41.199Z,0.00
2018-05-06T00:09:41.180Z,0.00
2018-05-06T00:10:41.162Z,0.00
2018-05-06T00:11:41.150Z,0.00
2018-05-06T00:12:41.132Z,0.00
2018-05-06T00:13:41.118Z,0.00
2018-05-06T00:14:41.099Z,0.00
2018-05-06T00:15:41.100Z,0.00
2018-05-06T00:16:41.076Z,0.00
2018-05-06T00:17:41.053Z,0.00
2018-05-06T00:18:41.036Z,0.00
2018-05-06T00:19:41.022Z,0.00
2018-05-06T00:20:41.009Z,0.00
2018-05-06T00:21:40.989Z,0.00
2018-05-06T00:22:40.973Z,0.00
2018-05-06T00:23:40.962Z,0.00
2018-05-06T00:24:40.942Z,0.00
2018-05-06T00:25:40.926Z,0.00
2018-05-06T00:26:40.914Z,0.00
2018-05-06T00:27:40.897Z,0.00
2018-05-06T00:28:40.877Z,0.00
2018-05-06T00:29:40.868Z,0.00
2018-05-06T00:30:40.854Z,0.00
2018-05-06T00:31:40.830Z,0.00
2018-05-06T00:32:40.818Z,0.00
2018-05-06T00:33:40.906Z,0.00
2018-05-06T00:34:40.785Z,0.00
2018-05-06T00:35:40.774Z,0.00
2018-05-06T00:36:40.756Z,0.00
2018-05-06T00:37:40.736Z,0.00
2018-05-06T00:38:40.722Z,0.00
2018-05-06T00:39:40.705Z,0.00
2018-05-06T00:40:40.688Z,0.00
2018-05-06T00:41:40.673Z,0.00
2018-05-06T00:42:40.659Z,0.00
2018-05-06T00:43:40.638Z,0.00
2018-05-06T00:44:40.631Z,0.00
2018-05-06T00:45:40.609Z,0.00
2018-05-06T00:46:40.590Z,0.00
2018-05-06T00:47:40.578Z,0.00
2018-05-06T00:48:40.562Z,0.00
2018-05-06T00:49:40.547Z,0.00
2018-05-06T00:50:40.528Z,0.00
2018-05-06T00:51:40.520Z,0.00
2018-05-06T00:52:40.498Z,0.00
2018-05-06T00:53:40.486Z,0.00
2018-05-06T00:54:40.467Z,0.00
2018-05-06T00:55:40.448Z,0.00
2018-05-06T00:56:40.441Z,0.00
2018-05-06T00:57:40.422Z,0.00
2018-05-06T00:58:40.405Z,0.00
2018-05-06T00:59:40.390Z,0.00
2018-05-06T01:00:40.374Z,0.00
2018-05-06T01:01:40.362Z,0.00
2018-05-06T01:02:40.336Z,0.00
2018-05-06T01:03:40.323Z,0.00
2018-05-06T01:04:40.303Z,0.00
2018-05-06T01:05:40.296Z,0.00
2018-05-06T01:06:40.272Z,0.00
2018-05-06T01:07:40.258Z,0.00
2018-05-06T01:08:40.242Z,0.00
2018-05-06T01:09:40.226Z,0.00
2018-05-06T01:10:40.210Z,0.00
2018-05-06T01:11:40.192Z,0.00
2018-05-06T01:12:40.175Z,0.00
2018-05-06T01:13:40.161Z,0.00
2018-05-06T01:14:40.146Z,0.00
2018-05-06T01:15:40.130Z,0.00
2018-05-06T01:16:40.121Z,0.00
2018-05-06T01:17:40.108Z,0.00
2018-05-06T01:18:40.079Z,0.00
2018-05-06T01:19:40.067Z,0.00
2018-05-06T01:20:40.051Z,0.00
2018-05-06T01:21:40.034Z,0.00
2018-05-06T01:22:40.018Z,0.00
2018-05-06T01:23:39.999Z,0.00
2018-05-06T01:24:39.988Z,0.00
2018-05-06T01:25:39.969Z,0.00
2018-05-06T01:26:39.957Z,0.00
2018-05-06T01:27:39.939Z,0.00
2018-05-06T01:28:39.917Z,0.00
2018-05-06T01:29:39.909Z,0.00
2018-05-06T01:30:39.889Z,0.00
2018-05-06T01:31:39.870Z,0.00
2018-05-06T01:32:39.854Z,0.00
2018-05-06T01:33:39.838Z,0.00
2018-05-06T01:34:39.826Z,0.00
2018-05-06T01:35:39.806Z,0.00
2018-05-06T01:36:39.788Z,0.00
2018-05-06T01:37:39.776Z,0.00
2018-05-06T01:38:39.758Z,0.00
2018-05-06T01:39:39.744Z,0.00
2018-05-06T01:40:39.724Z,0.00
2018-05-06T01:41:40.038Z,0.00
2018-05-06T01:42:39.695Z,0.00
2018-05-06T01:43:39.679Z,0.00
2018-05-06T01:44:39.671Z,0.00
2018-05-06T01:45:39.644Z,0.00
2018-05-06T01:46:39.626Z,0.00
2018-05-06T01:47:39.617Z,0.00
2018-05-06T01:48:39.594Z,0.00
2018-05-06T01:49:39.578Z,0.00
2018-05-06T01:50:39.564Z,0.00
2018-05-06T01:51:39.546Z,0.00
2018-05-06T01:52:39.531Z,0.00
2018-05-06T01:53:39.516Z,0.00
2018-05-06T01:54:39.500Z,0.00
2018-05-06T01:55:39.480Z,0.00
2018-05-06T01:56:39.467Z,0.00
2018-05-06T01:57:39.450Z,0.00
2018-05-06T01:58:39.433Z,0.00
2018-05-06T01:59:39.417Z,0.00
2018-05-06T02:00:39.444Z,0.00
2018-05-06T02:01:39.386Z,0.00
2018-05-06T02:02:39.366Z,0.00
2018-05-06T02:03:39.350Z,0.00
2018-05-06T02:04:39.333Z,0.00
2018-05-06T02:05:39.318Z,0.00
2018-05-06T02:06:39.303Z,0.00
2018-05-06T02:07:39.291Z,0.00
2018-05-06T02:08:39.269Z,0.00
2018-05-06T02:09:39.255Z,0.00
2018-05-06T02:10:39.243Z,0.00
2018-05-06T02:11:39.220Z,0.00
2018-05-06T02:12:39.205Z,0.00
2018-05-06T02:13:39.189Z,0.00
2018-05-06T02:14:39.176Z,0.00
2018-05-06T02:15:39.163Z,0.00
2018-05-06T02:16:39.136Z,0.00
2018-05-06T02:17:39.120Z,0.00
2018-05-06T02:18:39.105Z,0.00
2018-05-06T02:19:39.089Z,0.00
2018-05-06T02:20:39.075Z,0.00
2018-05-06T02:21:39.063Z,0.00
2018-05-06T02:22:39.039Z,0.00
2018-05-06T02:23:39.026Z,0.00
2018-05-06T02:24:39.016Z,0.00
2018-05-06T02:25:38.988Z,0.00
2018-05-06T02:26:38.978Z,0.00
2018-05-06T02:27:38.964Z,0.00
2018-05-06T02:28:38.938Z,0.00
2018-05-06T02:29:38.932Z,0.00
2018-05-06T02:30:38.909Z,0.00
2018-05-06T02:31:38.893Z,0.00
2018-05-06T02:32:38.880Z,0.00
2018-05-06T02:33:38.859Z,0.00
2018-05-06T02:34:38.846Z,0.00
2018-05-06T02:35:38.825Z,0.00
2018-05-06T02:36:38.809Z,0.00
2018-05-06T02:37:38.799Z,0.00
2018-05-06T02:38:38.780Z,0.00
2018-05-06T02:39:38.775Z,0.00
2018-05-06T02:40:38.745Z,0.00
2018-05-06T02:41:38.728Z,0.00
2018-05-06T02:42:38.710Z,0.00
2018-05-06T02:43:38.699Z,0.00
2018-05-06T02:44:38.676Z,0.00
2018-05-06T02:45:38.661Z,0.00
2018-05-06T02:46:38.640Z,0.00
2018-05-06T02:47:38.629Z,0.00
2018-05-06T02:48:38.617Z,0.00
2018-05-06T02:49:38.592Z,0.00
2018-05-06T02:50:38.576Z,0.00
2018-05-06T02:51:38.561Z,0.00
2018-05-06T02:52:38.545Z,0.00
2018-05-06T02:53:38.530Z,0.00
2018-05-06T02:54:38.514Z,0.00
2018-05-06T02:55:38.494Z,0.00
2018-05-06T02:56:38.481Z,0.00
2018-05-06T02:57:38.457Z,0.00
2018-05-06T02:58:38.446Z,0.00
2018-05-06T02:59:38.427Z,0.00
2018-05-06T03:00:38.413Z,0.00
2018-05-06T03:01:38.396Z,0.00
2018-05-06T03:02:38.379Z,0.00
2018-05-06T03:03:38.363Z,0.00
2018-05-06T03:04:38.352Z,0.00
2018-05-06T03:05:38.329Z,0.00
2018-05-06T03:06:38.316Z,0.00
2018-05-06T03:07:38.292Z,0.00
2018-05-06T03:08:38.276Z,0.00
2018-05-06T03:09:38.259Z,0.00
2018-05-06T03:10:38.245Z,0.00
2018-05-06T03:11:38.229Z,0.00
2018-05-06T03:12:38.209Z,0.00
2018-05-06T03:13:38.193Z,0.00
2018-05-06T03:14:38.179Z,0.00
2018-05-06T03:15:38.166Z,0.00
2018-05-06T03:16:38.147Z,0.00
2018-05-06T03:17:38.127Z,0.00
2018-05-06T03:18:38.109Z,0.00
2018-05-06T03:19:38.094Z,0.00
2018-05-06T03:20:38.082Z,0.00
2018-05-06T03:21:38.059Z,0.00
2018-05-06T03:22:38.046Z,0.00
2018-05-06T03:23:38.029Z,0.00
2018-05-06T03:24:38.019Z,0.00
2018-05-06T03:25:37.994Z,4.00
2018-05-06T03:26:37.977Z,0.00
2018-05-06T03:27:37.960Z,0.00
2018-05-06T03:28:37.946Z,0.00
2018-05-06T03:29:37.923Z,4.00
2018-05-06T03:30:37.919Z,0.00
2018-05-06T03:31:37.899Z,0.00
2018-05-06T03:32:37.875Z,4.00
2018-05-06T03:33:37.859Z,0.00
2018-05-06T03:34:37.843Z,4.00
2018-05-06T03:35:37.826Z,4.00
2018-05-06T03:36:37.813Z,4.00
2018-05-06T03:37:37.797Z,4.00
2018-05-06T03:38:37.778Z,4.00
2018-05-06T03:39:37.768Z,4.00
2018-05-06T03:40:37.741Z,4.00
2018-05-06T03:41:37.725Z,4.00
2018-05-06T03:42:37.710Z,4.00
2018-05-06T03:43:37.692Z,8.00
2018-05-06T03:44:37.678Z,8.00
2018-05-06T03:45:37.660Z,8.00
2018-05-06T03:46:37.640Z,8.00
2018-05-06T03:47:37.626Z,12.00
2018-05-06T03:48:37.607Z,12.00
2018-05-06T03:49:37.589Z,12.00
2018-05-06T03:50:37.576Z,12.00
2018-05-06T03:51:37.565Z,12.00
2018-05-06T03:52:37.542Z,16.00
2018-05-06T03:53:37.529Z,16.00
2018-05-06T03:54:37.508Z,16.00
2018-05-06T03:55:37.489Z,20.00
2018-05-06T03:56:37.473Z,20.00
2018-05-06T03:57:37.453Z,20.00
2018-05-06T03:58:37.439Z,20.00
2018-05-06T03:59:37.420Z,28.00
2018-05-06T04:00:37.412Z,28.00
2018-05-06T04:01:37.387Z,28.00
2018-05-06T04:02:37.370Z,32.00
2018-05-06T04:03:37.354Z,32.00
2018-05-06T04:04:37.336Z,32.00
2018-05-06T04:05:37.318Z,36.00
2018-05-06T04:06:37.310Z,36.00
2018-05-06T04:07:37.289Z,40.00
2018-05-06T04:08:37.271Z,40.00
2018-05-06T04:09:37.249Z,40.00
2018-05-06T04:10:37.239Z,44.00
2018-05-06T04:11:37.221Z,44.00
2018-05-06T04:12:37.204Z,52.00
2018-05-06T04:13:37.187Z,52.00
2018-05-06T04:14:37.169Z,52.00
2018-05-06T04:15:37.148Z,52.00
2018-05-06T04:16:37.132Z,56.00
2018-05-06T04:17:37.118Z,56.00
2018-05-06T04:18:37.103Z,60.00
2018-05-06T04:19:37.089Z,64.00
2018-05-06T04:20:37.069Z,60.00
2018-05-06T04:21:37.049Z,64.00
2018-05-06T04:22:37.031Z,68.00
2018-05-06T04:23:37.015Z,68.00
2018-05-06T04:24:36.999Z,68.00
2018-05-06T04:25:36.982Z,68.00
2018-05-06T04:26:36.967Z,72.00
2018-05-06T04:27:36.945Z,76.00
2018-05-06T04:28:36.928Z,76.00
2018-05-06T04:29:36.913Z,80.00
2018-05-06T04:30:36.899Z,80.00
2018-05-06T04:31:36.882Z,84.00
2018-05-06T04:32:36.860Z,84.00
2018-05-06T04:33:36.844Z,88.00
2018-05-06T04:34:36.828Z,88.00
2018-05-06T04:35:36.809Z,96.00
2018-05-06T04:36:36.798Z,96.00
2018-05-06T04:37:36.777Z,100.00
2018-05-06T04:38:36.759Z,100.00
2018-05-06T04:39:36.748Z,108.00
2018-05-06T04:40:36.725Z,108.00
2018-05-06T04:41:36.709Z,108.00
2018-05-06T04:42:36.691Z,112.00
2018-05-06T04:43:36.683Z,112.00
2018-05-06T04:44:36.668Z,116.00
2018-05-06T04:45:36.645Z,116.00
2018-05-06T04:46:36.628Z,116.00
2018-05-06T04:47:36.611Z,120.00
2018-05-06T04:48:36.589Z,120.00
2018-05-06T04:49:36.582Z,124.00
2018-05-06T04:50:36.555Z,128.00
2018-05-06T04:51:36.539Z,124.00
2018-05-06T04:52:36.531Z,128.00
2018-05-06T04:53:36.509Z,132.00
2018-05-06T04:54:36.490Z,132.00
2018-05-06T04:55:36.471Z,132.00
2018-05-06T04:56:36.459Z,136.00
2018-05-06T04:57:36.436Z,136.00
2018-05-06T04:58:36.427Z,140.00
2018-05-06T04:59:36.406Z,140.00
2018-05-06T05:00:36.389Z,144.00
2018-05-06T05:01:36.370Z,148.00
2018-05-06T05:02:36.352Z,152.00
2018-05-06T05:03:36.334Z,152.00
2018-05-06T05:04:36.335Z,156.00
2018-05-06T05:05:36.307Z,160.00
2018-05-06T05:06:36.305Z,160.00
2018-05-06T05:07:36.270Z,164.00
2018-05-06T05:08:36.249Z,164.00
2018-05-06T05:09:36.318Z,168.00
2018-05-06T05:10:36.224Z,168.00
2018-05-06T05:11:36.203Z,172.00
2018-05-06T05:12:36.186Z,172.00
2018-05-06T05:13:36.169Z,176.00
2018-05-06T05:14:36.148Z,176.00
2018-05-06T05:15:36.143Z,176.00
2018-05-06T05:16:36.120Z,180.00
2018-05-06T05:17:36.099Z,176.00
2018-05-06T05:18:36.084Z,180.00
2018-05-06T05:19:36.072Z,180.00
2018-05-06T05:20:36.048Z,184.00
2018-05-06T05:21:36.108Z,184.00
2018-05-06T05:22:36.012Z,184.00
2018-05-06T05:23:35.997Z,184.00
2018-05-06T05:24:35.979Z,184.00
2018-05-06T05:25:35.962Z,184.00
2018-05-06T05:26:35.954Z,188.00
2018-05-06T05:27:35.936Z,188.00
2018-05-06T05:28:35.917Z,188.00
2018-05-06T05:29:35.895Z,192.00
2018-05-06T05:30:35.883Z,196.00
2018-05-06T05:31:35.864Z,196.00
2018-05-06T05:32:35.851Z,200.00
2018-05-06T05:33:35.829Z,200.00
2018-05-06T05:34:35.817Z,200.00
2018-05-06T05:35:35.800Z,204.00
2018-05-06T05:36:35.776Z,204.00
2018-05-06T05:37:35.765Z,204.00
2018-05-06T05:38:35.747Z,208.00
2018-05-06T05:39:35.744Z,212.00
2018-05-06T05:40:35.714Z,212.00
2018-05-06T05:41:35.702Z,220.00
2018-05-06T05:42:35.679Z,220.00
2018-05-06T05:43:35.662Z,220.00
2018-05-06T05:44:35.642Z,224.00
2018-05-06T05:45:35.627Z,228.00
2018-05-06T05:46:35.610Z,232.00
2018-05-06T05:47:35.621Z,232.00
2018-05-06T05:48:35.577Z,232.00
2018-05-06T05:49:35.560Z,236.00
2018-05-06T05:50:35.548Z,236.00
2018-05-06T05:51:35.534Z,240.00
2018-05-06T05:52:35.515Z,244.00
2018-05-06T05:53:35.495Z,244.00
2018-05-06T05:54:35.477Z,252.00
2018-05-06T05:55:35.463Z,252.00
2018-05-06T05:56:35.445Z,256.00
2018-05-06T05:57:35.425Z,256.00
2018-05-06T05:58:35.412Z,260.00
2018-05-06T05:59:35.399Z,260.00
2018-05-06T06:00:35.381Z,264.00
2018-05-06T06:01:35.401Z,264.00
2018-05-06T06:02:35.345Z,268.00
2018-05-06T06:03:35.329Z,272.00
2018-05-06T06:04:35.309Z,276.00
2018-05-06T06:05:35.299Z,280.00
2018-05-06T06:06:35.274Z,284.00
2018-05-06T06:07:35.256Z,284.00
2018-05-06T06:08:35.240Z,292.00
2018-05-06T06:09:35.229Z,296.00
2018-05-06T06:10:35.210Z,296.00
2018-05-06T06:11:35.192Z,300.00
2018-05-06T06:12:35.183Z,304.00
2018-05-06T06:13:35.159Z,304.00
2018-05-06T06:14:35.147Z,312.00
2018-05-06T06:15:35.188Z,312.00
2018-05-06T06:16:35.110Z,316.00
2018-05-06T06:17:35.115Z,320.00
2018-05-06T06:18:35.075Z,320.00
2018-05-06T06:19:35.059Z,324.00
2018-05-06T06:20:35.041Z,328.00
2018-05-06T06:21:35.031Z,332.00
2018-05-06T06:22:35.008Z,340.00
2018-05-06T06:23:34.997Z,340.00
2018-05-06T06:24:35.052Z,348.00
2018-05-06T06:25:34.957Z,348.00
2018-05-06T06:26:34.941Z,352.00
2018-05-06T06:27:34.929Z,360.00
2018-05-06T06:28:34.909Z,364.00
2018-05-06T06:29:34.899Z,368.00
2018-05-06T06:30:34.877Z,372.00
2018-05-06T06:31:34.862Z,376.00
2018-05-06T06:32:34.846Z,376.00
2018-05-06T06:33:34.830Z,380.00
2018-05-06T06:34:34.810Z,388.00
2018-05-06T06:35:34.793Z,388.00
2018-05-06T06:36:34.775Z,392.00
2018-05-06T06:37:34.763Z,396.00
2018-05-06T06:38:34.744Z,396.00
2018-05-06T06:39:34.729Z,400.00
2018-05-06T06:40:34.709Z,404.00
2018-05-06T06:41:34.699Z,408.00
2018-05-06T06:42:34.679Z,408.00
2018-05-06T06:43:34.664Z,416.00
2018-05-06T06:44:34.648Z,416.00
2018-05-06T06:45:34.628Z,424.00
2018-05-06T06:46:34.610Z,424.00
2018-05-06T06:47:34.600Z,428.00
2018-05-06T06:48:34.578Z,432.00
2018-05-06T06:49:34.565Z,436.00
2018-05-06T06:50:34.551Z,444.00
2018-05-06T06:51:34.530Z,452.00
2018-05-06T06:52:34.515Z,464.00
2018-05-06T06:53:34.503Z,468.00
2018-05-06T06:54:34.480Z,484.00
2018-05-06T06:55:34.467Z,496.00
2018-05-06T06:56:34.449Z,508.00
2018-05-06T06:57:34.428Z,524.00
2018-05-06T06:58:34.423Z,540.00
2018-05-06T06:59:34.399Z,560.00
2018-05-06T07:00:34.392Z,572.00
2018-05-06T07:01:34.369Z,588.00
2018-05-06T07:02:34.351Z,604.00
2018-05-06T07:03:34.330Z,620.00
2018-05-06T07:04:34.315Z,632.00
2018-05-06T07:05:34.305Z,648.00
2018-05-06T07:06:34.288Z,660.00
2018-05-06T07:07:34.272Z,672.00
2018-05-06T07:08:34.249Z,688.00
2018-05-06T07:09:34.239Z,700.00
2018-05-06T07:10:34.215Z,716.00
2018-05-06T07:11:34.201Z,732.00
2018-05-06T07:12:34.183Z,744.00
2018-05-06T07:13:34.169Z,760.00
2018-05-06T07:14:34.152Z,776.00
2018-05-06T07:15:34.139Z,792.00
2018-05-06T07:16:34.132Z,808.00
2018-05-06T07:17:34.102Z,820.00
2018-05-06T07:18:34.089Z,836.00
2018-05-06T07:19:34.079Z,848.00
2018-05-06T07:20:34.057Z,864.00
2018-05-06T07:21:34.044Z,876.00
2018-05-06T07:22:34.026Z,892.00
2018-05-06T07:23:34.010Z,916.00
2018-05-06T07:24:34.000Z,944.00
2018-05-06T07:25:33.978Z,980.00
2018-05-06T07:26:33.970Z,1020.00
2018-05-06T07:27:33.951Z,1056.00
2018-05-06T07:28:33.927Z,1092.00
2018-05-06T07:29:33.917Z,1124.00
2018-05-06T07:30:33.903Z,1156.00
2018-05-06T07:31:33.879Z,1188.00
2018-05-06T07:32:33.865Z,1212.00
2018-05-06T07:33:33.851Z,1240.00
2018-05-06T07:34:33.838Z,1268.00
2018-05-06T07:35:33.819Z,1296.00
2018-05-06T07:36:33.808Z,1324.00
2018-05-06T07:37:33.792Z,1352.00
2018-05-06T07:38:33.774Z,1380.00
2018-05-06T07:39:33.758Z,1408.00
2018-05-06T07:40:33.739Z,1436.00
2018-05-06T07:41:33.739Z,1464.00
2018-05-06T07:42:33.713Z,1488.00
2018-05-06T07:43:33.694Z,1512.00
2018-05-06T07:44:33.677Z,1536.00
2018-05-06T07:45:33.660Z,1564.00
2018-05-06T07:46:33.651Z,1588.00
2018-05-06T07:47:33.628Z,1612.00
2018-05-06T07:48:33.618Z,1632.00
2018-05-06T07:49:33.602Z,1660.00
2018-05-06T07:50:33.585Z,1684.00
2018-05-06T07:51:33.568Z,1704.00
2018-05-06T07:52:33.561Z,1728.00
2018-05-06T07:53:33.541Z,1752.00
2018-05-06T07:54:33.526Z,1776.00
2018-05-06T07:55:33.517Z,1800.00
2018-05-06T07:56:33.495Z,1824.00
2018-05-06T07:57:33.477Z,1848.00
2018-05-06T07:58:33.459Z,1872.00
2018-05-06T07:59:33.450Z,1900.00
2018-05-06T08:00:33.430Z,1924.00
2018-05-06T08:01:33.418Z,1948.00
2018-05-06T08:02:33.400Z,1972.00
2018-05-06T08:03:33.388Z,1992.00
2018-05-06T08:04:33.380Z,2016.00
2018-05-06T08:05:33.356Z,2032.00
2018-05-06T08:06:33.340Z,2056.00
2018-05-06T08:07:33.324Z,2076.00
2018-05-06T08:08:33.316Z,2096.00
2018-05-06T08:09:33.295Z,2116.00
2018-05-06T08:10:33.282Z,2132.00
2018-05-06T08:11:33.273Z,2140.00
2018-05-06T08:12:33.257Z,2164.00
2018-05-06T08:13:33.241Z,2184.00
2018-05-06T08:14:33.221Z,2192.00
2018-05-06T08:15:33.210Z,2208.00
2018-05-06T08:16:33.285Z,2216.00
2018-05-06T08:17:33.175Z,2228.00
2018-05-06T08:18:33.160Z,2232.00
2018-05-06T08:19:33.148Z,2240.00
2018-05-06T08:20:33.138Z,2252.00
2018-05-06T08:21:33.122Z,2256.00
2018-05-06T08:22:33.113Z,2268.00
2018-05-06T08:23:33.090Z,2276.00
2018-05-06T08:24:33.077Z,2284.00
2018-05-06T08:25:33.067Z,2292.00
2018-05-06T08:26:33.052Z,2300.00
2018-05-06T08:27:33.048Z,2308.00
2018-05-06T08:28:33.016Z,2316.00
2018-05-06T08:29:33.007Z,2324.00
2018-05-06T08:30:32.997Z,2332.00
2018-05-06T08:31:32.972Z,2336.00
2018-05-06T08:32:32.959Z,2348.00
2018-05-06T08:33:32.941Z,2352.00
2018-05-06T08:34:32.936Z,2360.00
2018-05-06T08:35:32.916Z,2364.00
2018-05-06T08:36:32.900Z,2372.00
2018-05-06T08:37:32.910Z,2376.00
2018-05-06T08:38:32.871Z,2376.00
2018-05-06T08:39:32.857Z,2384.00
2018-05-06T08:40:32.845Z,2344.00
2018-05-06T08:41:32.831Z,2352.00
2018-05-06T08:42:32.813Z,2360.00
2018-05-06T08:43:32.800Z,2372.00
2018-05-06T08:44:32.790Z,2376.00
2018-05-06T08:45:32.770Z,2388.00
2018-05-06T08:46:32.753Z,2388.00
2018-05-06T08:47:32.748Z,2396.00
2018-05-06T08:48:32.729Z,2404.00
2018-05-06T08:49:32.724Z,2392.00
2018-05-06T08:50:32.710Z,2416.00
2018-05-06T08:51:32.754Z,2428.00
2018-05-06T08:52:32.675Z,2432.00
2018-05-06T08:53:32.657Z,2424.00
2018-05-06T08:54:32.644Z,2428.00
2018-05-06T08:55:32.648Z,2436.00
2018-05-06T08:56:32.613Z,2444.00
2018-05-06T08:57:32.602Z,2452.00
2018-05-06T08:58:32.586Z,2464.00
2018-05-06T08:59:32.656Z,2472.00
2018-05-06T09:00:32.564Z,2472.00
2018-05-06T09:01:32.554Z,2488.00
2018-05-06T09:02:32.531Z,2492.00
2018-05-06T09:03:32.517Z,2496.00
2018-05-06T09:04:32.507Z,2504.00
2018-05-06T09:05:32.492Z,2504.00
2018-05-06T09:06:32.475Z,2516.00
2018-05-06T09:07:32.470Z,2464.00
2018-05-06T09:08:32.468Z,2520.00
2018-05-06T09:09:32.444Z,2524.00
2018-05-06T09:10:32.421Z,2528.00
2018-05-06T09:11:32.408Z,2496.00
2018-05-06T09:12:32.398Z,2544.00
2018-05-06T09:13:32.388Z,2544.00
2018-05-06T09:14:32.366Z,2512.00
2018-05-06T09:15:32.352Z,2552.00
2018-05-06T09:16:32.339Z,2560.00
2018-05-06T09:17:32.328Z,2548.00
2018-05-06T09:18:32.316Z,2564.00
2018-05-06T09:19:32.301Z,2568.00
2018-05-06T09:20:32.289Z,2572.00
2018-05-06T09:21:32.272Z,2580.00
2018-05-06T09:22:32.260Z,2544.00
2018-05-06T09:23:32.251Z,2584.00
2018-05-06T09:24:32.244Z,2600.00
2018-05-06T09:25:32.230Z,2560.00
2018-05-06T09:26:32.210Z,2592.00
2018-05-06T09:27:32.192Z,2596.00
2018-05-06T09:28:32.178Z,2600.00
2018-05-06T09:29:32.170Z,2604.00
2018-05-06T09:30:32.153Z,2600.00
2018-05-06T09:31:32.142Z,2604.00
2018-05-06T09:32:32.137Z,2600.00
2018-05-06T09:33:32.112Z,2592.00
2018-05-06T09:34:32.117Z,2612.00
2018-05-06T09:35:32.093Z,2616.00
2018-05-06T09:36:32.077Z,2616.00
2018-05-06T09:37:32.067Z,2624.00
2018-05-06T09:38:32.048Z,2616.00
2018-05-06T09:39:32.040Z,2620.00
2018-05-06T09:40:32.029Z,2616.00
2018-05-06T09:41:32.013Z,2616.00
2018-05-06T09:42:31.997Z,2608.00
2018-05-06T09:43:31.990Z,2612.00
2018-05-06T09:44:31.974Z,2608.00
2018-05-06T09:45:31.972Z,2612.00
2018-05-06T09:46:31.948Z,2612.00
2018-05-06T09:47:31.944Z,2588.00
2018-05-06T09:48:31.918Z,2592.00
2018-05-06T09:49:31.909Z,2588.00
2018-05-06T09:50:31.897Z,2572.00
2018-05-06T09:51:31.879Z,2584.00
2018-05-06T09:52:31.869Z,2580.00
2018-05-06T09:53:31.860Z,2576.00
2018-05-06T09:54:31.846Z,2604.00
2018-05-06T09:55:31.831Z,2600.00
2018-05-06T09:56:31.821Z,2592.00
2018-05-06T09:57:31.804Z,2576.00
2018-05-06T09:58:31.788Z,2584.00
2018-05-06T09:59:31.777Z,2568.00
2018-05-06T10:00:31.781Z,2572.00
2018-05-06T10:01:31.753Z,2572.00
2018-05-06T10:02:31.738Z,2572.00
2018-05-06T10:03:31.732Z,2576.00
2018-05-06T10:04:31.722Z,2568.00
2018-05-06T10:05:31.703Z,2556.00
2018-05-06T10:06:31.704Z,2564.00
2018-05-06T10:07:31.674Z,2548.00
2018-05-06T10:08:31.671Z,2544.00
2018-05-06T10:09:31.655Z,2548.00
2018-05-06T10:10:31.643Z,2524.00
2018-05-06T10:11:31.623Z,2540.00
2018-05-06T10:12:31.619Z,2544.00
2018-05-06T10:13:31.613Z,2544.00
2018-05-06T10:14:31.588Z,2528.00
2018-05-06T10:15:31.585Z,2528.00
2018-05-06T10:16:31.573Z,2528.00
2018-05-06T10:17:31.550Z,2532.00
2018-05-06T10:18:31.543Z,2540.00
2018-05-06T10:19:31.529Z,2536.00
2018-05-06T10:20:31.526Z,2532.00
2018-05-06T10:21:31.500Z,2540.00
2018-05-06T10:22:31.492Z,2536.00
2018-05-06T10:23:31.479Z,2528.00
2018-05-06T10:24:31.462Z,2524.00
2018-05-06T10:25:31.457Z,2460.00
2018-05-06T10:26:31.457Z,2532.00
2018-05-06T10:27:31.440Z,2568.00
2018-05-06T10:28:31.417Z,2540.00
2018-05-06T10:29:31.403Z,2536.00
2018-05-06T10:30:31.419Z,2536.00
2018-05-06T10:31:31.376Z,2528.00
2018-05-06T10:32:31.368Z,2528.00
2018-05-06T10:33:31.353Z,2528.00
2018-05-06T10:34:31.341Z,2548.00
2018-05-06T10:35:31.332Z,2540.00
2018-05-06T10:36:31.344Z,2540.00
2018-05-06T10:37:31.323Z,2528.00
2018-05-06T10:38:31.301Z,2520.00
2018-05-06T10:39:31.281Z,2532.00
2018-05-06T10:40:31.276Z,2532.00
2018-05-06T10:41:31.260Z,2548.00
2018-05-06T10:42:31.242Z,2520.00
2018-05-06T10:43:31.233Z,2536.00
2018-05-06T10:44:31.227Z,2532.00
2018-05-06T10:45:31.212Z,2508.00
2018-05-06T10:46:31.196Z,2512.00
2018-05-06T10:47:31.191Z,2500.00
2018-05-06T10:48:31.177Z,2504.00
2018-05-06T10:49:31.163Z,2516.00
2018-05-06T10:50:31.343Z,2512.00
2018-05-06T10:51:31.160Z,2508.00
2018-05-06T10:52:31.124Z,2504.00
2018-05-06T10:53:31.113Z,2504.00
2018-05-06T10:54:31.102Z,2468.00
2018-05-06T10:55:31.089Z,2484.00
2018-05-06T10:56:31.090Z,2524.00
2018-05-06T10:57:31.068Z,2468.00
2018-05-06T10:58:31.060Z,2460.00
2018-05-06T10:59:31.044Z,2488.00
2018-05-06T11:00:31.035Z,2492.00
2018-05-06T11:01:31.028Z,2504.00
2018-05-06T11:02:31.012Z,2512.00
2018-05-06T11:03:30.997Z,2504.00
2018-05-06T11:04:31.001Z,2508.00
2018-05-06T11:05:30.992Z,2524.00
2018-05-06T11:06:30.971Z,2532.00
2018-05-06T11:07:30.952Z,2528.00
2018-05-06T11:08:30.963Z,2536.00
2018-05-06T11:09:30.926Z,2516.00
2018-05-06T11:10:31.034Z,2532.00
2018-05-06T11:11:30.901Z,2540.00
2018-05-06T11:12:30.892Z,2524.00
2018-05-06T11:13:30.883Z,2544.00
2018-05-06T11:14:30.870Z,2500.00
2018-05-06T11:15:30.863Z,2516.00
2018-05-06T11:16:30.850Z,2508.00
2018-05-06T11:17:30.843Z,2532.00
2018-05-06T11:18:30.829Z,2572.00
2018-05-06T11:19:30.811Z,2576.00
2018-05-06T11:20:30.797Z,2588.00
2018-05-06T11:21:30.797Z,2580.00
2018-05-06T11:22:30.785Z,2588.00
2018-05-06T11:23:30.764Z,2584.00
2018-05-06T11:24:30.758Z,2600.00
2018-05-06T11:25:30.742Z,2592.00
2018-05-06T11:26:30.729Z,2580.00
2018-05-06T11:27:30.729Z,2588.00
2018-05-06T11:28:30.706Z,2576.00
2018-05-06T11:29:30.691Z,2616.00
2018-05-06T11:30:30.685Z,2608.00
2018-05-06T11:31:30.672Z,2604.00
2018-05-06T11:32:30.656Z,2580.00
2018-05-06T11:33:30.654Z,2580.00
2018-05-06T11:34:30.645Z,2584.00
2018-05-06T11:35:30.623Z,2592.00
2018-05-06T11:36:30.613Z,2568.00
2018-05-06T11:37:30.614Z,2600.00
2018-05-06T11:38:30.589Z,2552.00
2018-05-06T11:39:30.580Z,2580.00
2018-05-06T11:40:30.562Z,2588.00
2018-05-06T11:41:30.558Z,2580.00
2018-05-06T11:42:30.542Z,2560.00
2018-05-06T11:43:30.531Z,2572.00
2018-05-06T11:44:30.520Z,2572.00
2018-05-06T11:45:30.510Z,2580.00
2018-05-06T11:46:30.491Z,2584.00
2018-05-06T11:47:30.484Z,2600.00
2018-05-06T11:48:30.467Z,2600.00
2018-05-06T11:49:30.458Z,2580.00
2018-05-06T11:50:30.450Z,2616.00
2018-05-06T11:51:30.441Z,2616.00
2018-05-06T11:52:30.434Z,2616.00
2018-05-06T11:53:30.438Z,2620.00
2018-05-06T11:54:30.404Z,2600.00
2018-05-06T11:55:30.388Z,2660.00
2018-05-06T11:56:30.380Z,2668.00
2018-05-06T11:57:30.364Z,2656.00
2018-05-06T11:58:30.370Z,2648.00
2018-05-06T11:59:30.339Z,2572.00
2018-05-06T12:00:30.343Z,2612.00
2018-05-06T12:01:30.320Z,2608.00
2018-05-06T12:02:30.318Z,2552.00
2018-05-06T12:03:30.293Z,2536.00
2018-05-06T12:04:30.289Z,2532.00
2018-05-06T12:05:30.273Z,2516.00
2018-05-06T12:06:30.274Z,2524.00
2018-05-06T12:07:30.250Z,2516.00
2018-05-06T12:08:30.242Z,2508.00
2018-05-06T12:09:30.244Z,2496.00
2018-05-06T12:10:30.220Z,2688.00
2018-05-06T12:11:30.211Z,2680.00
2018-05-06T12:12:30.193Z,2656.00
2018-05-06T12:13:30.200Z,2624.00
2018-05-06T12:14:30.178Z,2624.00
2018-05-06T12:15:30.162Z,2616.00
2018-05-06T12:16:30.149Z,2628.00
2018-05-06T12:17:30.137Z,2636.00
2018-05-06T12:18:30.133Z,2628.00
2018-05-06T12:19:30.116Z,2616.00
2018-05-06T12:20:30.112Z,2604.00
2018-05-06T12:21:30.097Z,2624.00
2018-05-06T12:22:30.079Z,2632.00
2018-05-06T12:23:30.074Z,2628.00
2018-05-06T12:24:30.063Z,2636.00
2018-05-06T12:25:30.048Z,2644.00
2018-05-06T12:26:30.042Z,2656.00
2018-05-06T12:27:30.032Z,2664.00
2018-05-06T12:28:30.016Z,2672.00
2018-05-06T12:29:30.000Z,2660.00
2018-05-06T12:30:29.999Z,2668.00
2018-05-06T12:31:29.983Z,2672.00
2018-05-06T12:32:29.965Z,2672.00
2018-05-06T12:33:29.960Z,2672.00
2018-05-06T12:34:29.949Z,2680.00